Time;durP1;ratioP1;P1;durP2;ratioP2;P2;SDS_P1;SDS_P2;PMS_P1;PMS_P2;Temp;Humidity;BMP_temperature;BMP_pressure;BME280_temperature;BME280_humidity;BME280_pressure;Samples;Min_cycle;Max_cycle;Signal;HPM_P1;HPM_P2
2024/01/07 00:00:30;;;;;;;15.43;10.43;;;2.20;99.90;;;;;;5080645;28;20334;-60
2024/01/07 00:03:00;;;;;;;18.13;10.50;;;2.20;99.90;;;;;;5080579;28;20273;-59
2024/01/07 00:05:28;;;;;;;18.23;10.50;;;2.20;99.90;;;;;;5080056;28;20646;-59
2024/01/07 00:08:00;;;;;;;16.33;10.33;;;2.20;99.90;;;;;;5087698;28;20207;-59
2024/01/07 00:10:28;;;;;;;14.37;10.60;;;2.20;99.90;;;;;;5085513;28;20230;-59
2024/01/07 00:12:57;;;;;;;15.77;9.97;;;2.20;99.90;;;;;;5084699;27;20222;-59
2024/01/07 00:15:26;;;;;;;14.77;10.00;;;2.20;99.90;;;;;;5078082;28;20269;-60
2024/01/07 00:17:55;;;;;;;13.87;9.80;;;2.30;99.90;;;;;;5082726;28;20234;-59
2024/01/07 00:20:26;;;;;;;13.57;10.30;;;2.30;99.90;;;;;;5081295;28;20680;-59
2024/01/07 00:22:54;;;;;;;13.33;10.03;;;2.30;99.90;;;;;;5084086;28;20191;-59
2024/01/07 00:25:22;;;;;;;15.93;10.73;;;2.30;99.90;;;;;;5086777;28;20705;-59
2024/01/07 00:27:51;;;;;;;13.97;9.90;;;2.30;99.90;;;;;;5081199;28;20232;-59
2024/01/07 00:30:20;;;;;;;22.43;10.40;;;2.30;99.90;;;;;;5085355;28;20675;-59
2024/01/07 00:32:51;;;;;;;16.23;10.40;;;2.40;99.90;;;;;;5079799;28;20230;-59
2024/01/07 00:35:20;;;;;;;16.60;10.50;;;2.40;99.90;;;;;;5080194;28;20195;-59
2024/01/07 00:37:49;;;;;;;23.33;10.23;;;2.40;99.90;;;;;;5082409;28;20227;-59
2024/01/07 00:40:17;;;;;;;14.93;9.90;;;2.40;99.90;;;;;;5080261;28;20223;-59
2024/01/07 00:42:46;;;;;;;16.10;10.37;;;2.40;99.90;;;;;;5082194;28;20632;-59
2024/01/07 00:45:14;;;;;;;15.10;10.03;;;2.40;99.90;;;;;;5078829;28;20246;-60
2024/01/07 00:47:42;;;;;;;16.37;10.60;;;2.40;99.90;;;;;;5083903;28;20701;-59
2024/01/07 00:50:11;;;;;;;16.97;10.73;;;2.40;99.90;;;;;;5089626;27;20253;-59
2024/01/07 00:52:42;;;;;;;16.03;10.40;;;2.50;99.90;;;;;;5085011;28;20187;-59
2024/01/07 00:55:12;;;;;;;17.23;10.70;;;2.40;99.90;;;;;;5089603;28;20215;-59
2024/01/07 00:57:41;;;;;;;18.43;10.70;;;2.50;99.90;;;;;;5089066;28;20226;-60
2024/01/07 01:00:10;;;;;;;13.03;9.80;;;2.50;99.90;;;;;;5084612;28;20329;-59
2024/01/07 01:02:39;;;;;;;14.07;10.13;;;2.50;99.90;;;;;;5084181;28;20250;-59
2024/01/07 01:05:08;;;;;;;14.20;9.70;;;2.50;99.90;;;;;;5085405;28;20235;-59
2024/01/07 01:07:36;;;;;;;12.33;8.50;;;2.50;99.90;;;;;;5089267;28;20549;-61
2024/01/07 01:10:05;;;;;;;12.37;9.07;;;2.50;99.90;;;;;;5085991;28;20288;-60
2024/01/07 01:12:35;;;;;;;14.57;8.50;;;2.60;99.90;;;;;;5086368;28;20219;-59
2024/01/07 01:15:03;;;;;;;14.23;8.70;;;2.60;99.90;;;;;;5090701;28;20246;-59
2024/01/07 01:17:31;;;;;;;12.40;8.87;;;2.60;99.90;;;;;;5085470;27;20211;-59
2024/01/07 01:20:00;;;;;;;11.90;8.30;;;2.60;99.90;;;;;;5082343;28;20589;-59
2024/01/07 01:22:28;;;;;;;13.30;8.73;;;2.60;99.90;;;;;;5085045;28;20228;-60
2024/01/07 01:24:56;;;;;;;13.93;8.57;;;2.70;99.90;;;;;;5084959;28;20673;-59
2024/01/07 01:27:25;;;;;;;13.57;8.60;;;2.70;99.90;;;;;;5086120;28;20242;-59
2024/01/07 01:29:54;;;;;;;11.57;8.60;;;2.70;99.90;;;;;;5085768;28;20239;-59
2024/01/07 01:32:22;;;;;;;11.40;8.07;;;2.70;99.90;;;;;;5087890;28;20207;-60
2024/01/07 01:34:51;;;;;;;10.57;8.13;;;2.70;99.90;;;;;;5083751;28;20249;-60
2024/01/07 01:37:19;;;;;;;11.77;8.50;;;2.80;99.90;;;;;;5082247;28;20622;-60
2024/01/07 01:39:47;;;;;;;11.80;8.33;;;2.70;99.90;;;;;;5084569;28;20219;-60
2024/01/07 01:42:16;;;;;;;12.83;7.83;;;2.80;99.90;;;;;;5081419;28;20220;-59
2024/01/07 01:44:44;;;;;;;10.47;7.87;;;2.80;99.90;;;;;;5083669;28;20685;-60
2024/01/07 01:47:14;;;;;;;10.07;7.97;;;2.70;99.90;;;;;;5084783;28;20196;-60
2024/01/07 01:49:43;;;;;;;9.33;7.67;;;2.80;99.90;;;;;;5085261;28;20254;-59
2024/01/07 01:52:12;;;;;;;12.00;8.77;;;2.80;99.90;;;;;;5081371;28;20618;-59
2024/01/07 01:54:41;;;;;;;11.67;8.27;;;2.80;99.90;;;;;;5083281;28;20214;-59
2024/01/07 01:57:13;;;;;;;11.23;8.17;;;2.70;99.90;;;;;;5083694;28;20219;-60
2024/01/07 01:59:43;;;;;;;12.27;8.43;;;2.80;99.90;;;;;;5088632;28;20222;-59
2024/01/07 02:02:14;;;;;;;11.23;8.23;;;2.70;99.90;;;;;;5087326;28;20192;-60
2024/01/07 02:04:42;;;;;;;12.90;8.93;;;2.70;99.90;;;;;;5086064;28;20227;-59
2024/01/07 02:07:11;;;;;;;11.50;8.30;;;2.70;99.90;;;;;;5084629;28;20215;-59
2024/01/07 02:09:39;;;;;;;13.03;8.97;;;2.70;99.90;;;;;;5082522;28;20231;-59
2024/01/07 02:12:11;;;;;;;11.53;8.47;;;2.70;99.90;;;;;;5084971;28;20308;-62
2024/01/07 02:14:40;;;;;;;12.87;8.73;;;2.70;99.90;;;;;;5086330;28;20227;-60
2024/01/07 02:17:08;;;;;;;12.50;9.33;;;2.70;99.90;;;;;;5083017;28;20192;-60
2024/01/07 02:19:38;;;;;;;11.47;9.00;;;2.70;99.90;;;;;;5083152;28;20183;-60
2024/01/07 02:22:07;;;;;;;13.73;9.47;;;2.70;99.90;;;;;;5075173;28;20215;-59
2024/01/07 02:24:36;;;;;;;14.23;9.57;;;2.70;99.90;;;;;;5084527;28;20250;-60
2024/01/07 02:27:05;;;;;;;14.53;10.47;;;2.70;99.90;;;;;;5088832;28;20325;-60
2024/01/07 02:29:33;;;;;;;14.37;9.77;;;2.60;99.90;;;;;;5084472;28;20852;-60
2024/01/07 02:32:01;;;;;;;15.07;10.97;;;2.70;99.90;;;;;;5081189;28;20198;-60
2024/01/07 02:34:29;;;;;;;19.07;11.10;;;2.60;99.90;;;;;;5080919;28;20226;-60
2024/01/07 02:36:58;;;;;;;17.57;10.87;;;2.60;99.90;;;;;;5083704;28;20215;-60
2024/01/07 02:39:26;;;;;;;14.87;10.83;;;2.60;99.90;;;;;;5085584;28;20215;-59
2024/01/07 02:41:56;;;;;;;14.73;10.60;;;2.60;99.90;;;;;;5083534;28;20223;-60
2024/01/07 02:44:24;;;;;;;18.67;11.00;;;2.60;99.90;;;;;;5082787;28;20269;-60
2024/01/07 02:46:53;;;;;;;16.93;11.23;;;2.60;99.90;;;;;;5079261;28;20282;-60
2024/01/07 02:49:21;;;;;;;16.53;11.50;;;2.60;99.90;;;;;;5083933;28;20500;-60
2024/01/07 02:51:50;;;;;;;15.73;11.43;;;2.60;99.90;;;;;;5078753;28;20229;-60
2024/01/07 02:54:18;;;;;;;18.40;11.77;;;2.60;99.90;;;;;;5080316;28;20219;-59
2024/01/07 02:56:49;;;;;;;19.13;12.27;;;2.60;99.90;;;;;;5080797;28;21002;-60
2024/01/07 02:59:19;;;;;;;18.20;12.43;;;2.60;99.90;;;;;;5084688;28;20561;-60
2024/01/07 03:01:47;;;;;;;19.73;13.07;;;2.60;99.90;;;;;;5086607;28;20190;-60
2024/01/07 03:04:17;;;;;;;19.40;12.50;;;2.60;99.90;;;;;;5083857;28;20222;-60
2024/01/07 03:06:45;;;;;;;19.40;12.80;;;2.60;99.90;;;;;;5084163;27;20237;-60
2024/01/07 03:09:13;;;;;;;20.13;12.70;;;2.60;99.90;;;;;;5079856;28;20227;-60
2024/01/07 03:11:42;;;;;;;19.60;12.63;;;2.60;99.90;;;;;;5084399;28;20234;-60
2024/01/07 03:14:11;;;;;;;20.43;13.73;;;2.60;99.90;;;;;;5082984;28;20184;-60
2024/01/07 03:16:40;;;;;;;22.30;13.47;;;2.60;99.90;;;;;;5085241;28;20203;-60
2024/01/07 03:19:09;;;;;;;20.33;14.03;;;2.60;99.90;;;;;;5082254;28;20326;-61
2024/01/07 03:21:37;;;;;;;20.33;13.37;;;2.50;99.90;;;;;;5086125;28;20219;-59
2024/01/07 03:24:06;;;;;;;21.40;14.10;;;2.50;99.90;;;;;;5118142;27;20250;-60
2024/01/07 03:26:34;;;;;;;21.37;13.93;;;2.50;99.90;;;;;;5083954;28;20235;-60
2024/01/07 03:29:03;;;;;;;21.87;13.90;;;2.50;99.90;;;;;;5085664;28;20648;-60
2024/01/07 03:31:31;;;;;;;23.10;14.77;;;2.40;99.90;;;;;;5081659;28;20227;-60
2024/01/07 03:34:01;;;;;;;26.43;15.57;;;2.50;99.90;;;;;;5084648;28;20227;-60
2024/01/07 03:36:29;;;;;;;26.77;15.10;;;2.50;99.90;;;;;;5084233;28;20227;-59
2024/01/07 03:38:58;;;;;;;27.30;15.40;;;2.40;99.90;;;;;;5085684;28;20219;-60
2024/01/07 03:41:26;;;;;;;22.80;15.20;;;2.40;99.90;;;;;;5081425;28;20243;-60
2024/01/07 03:43:54;;;;;;;22.73;13.73;;;2.40;99.90;;;;;;5082019;28;20195;-60
2024/01/07 03:46:22;;;;;;;23.47;13.80;;;2.40;99.90;;;;;;5081579;28;20211;-60
2024/01/07 03:48:50;;;;;;;22.90;13.93;;;2.40;99.90;;;;;;5083906;28;20223;-58
2024/01/07 03:51:20;;;;;;;29.13;13.33;;;2.40;99.90;;;;;;5082146;28;20222;-60
2024/01/07 03:53:48;;;;;;;22.57;14.17;;;2.30;99.90;;;;;;5082750;28;20246;-58
2024/01/07 03:56:17;;;;;;;19.97;13.47;;;2.40;99.90;;;;;;5084723;28;20199;-59
2024/01/07 03:58:45;;;;;;;20.60;13.87;;;2.40;99.90;;;;;;5082574;28;20282;-59
2024/01/07 04:01:17;;;;;;;20.10;13.93;;;2.40;99.90;;;;;;5085244;27;20215;-59
2024/01/07 04:03:46;;;;;;;19.60;14.00;;;2.30;99.90;;;;;;5082924;28;20718;-59
2024/01/07 04:06:15;;;;;;;22.60;14.37;;;2.30;99.90;;;;;;5086289;28;20231;-59
2024/01/07 04:08:44;;;;;;;19.83;13.30;;;2.30;99.90;;;;;;5081880;27;20295;-59
2024/01/07 04:11:13;;;;;;;17.17;12.77;;;2.30;99.90;;;;;;5083433;28;20563;-59
2024/01/07 04:13:41;;;;;;;21.47;13.97;;;2.20;99.90;;;;;;5087504;28;20219;-59
2024/01/07 04:16:17;;;;;;;19.80;13.00;;;2.30;99.90;;;;;;5081169;28;20227;-60
2024/01/07 04:18:47;;;;;;;19.37;13.33;;;2.30;99.90;;;;;;5080821;28;20222;-59
2024/01/07 04:21:21;;;;;;;16.73;12.00;;;2.20;99.90;;;;;;5082078;28;20721;-59
2024/01/07 04:23:51;;;;;;;20.73;13.73;;;2.20;99.90;;;;;;5088720;28;20272;-59
2024/01/07 04:26:19;;;;;;;19.10;12.47;;;2.20;99.90;;;;;;5085872;28;20202;-59
2024/01/07 04:28:47;;;;;;;18.37;13.17;;;2.30;99.90;;;;;;5083678;28;20536;-59
2024/01/07 04:31:15;;;;;;;19.03;12.93;;;2.30;99.90;;;;;;5087430;28;20306;-59
2024/01/07 04:33:44;;;;;;;17.70;12.80;;;2.30;99.90;;;;;;5087049;28;20231;-59
2024/01/07 04:36:12;;;;;;;22.37;14.50;;;2.30;99.90;;;;;;5084860;28;20295;-59
2024/01/07 04:38:40;;;;;;;21.83;15.00;;;2.30;99.90;;;;;;5085738;28;20612;-59
2024/01/07 04:41:10;;;;;;;20.70;14.93;;;2.20;99.90;;;;;;5084875;28;20888;-59
2024/01/07 04:43:38;;;;;;;25.37;14.93;;;2.20;99.90;;;;;;5085670;28;20207;-59
2024/01/07 04:46:06;;;;;;;22.50;14.83;;;2.20;99.90;;;;;;5086728;28;20246;-59
2024/01/07 04:48:35;;;;;;;22.30;14.73;;;2.20;99.90;;;;;;5088277;28;20705;-59
2024/01/07 04:51:04;;;;;;;22.57;15.03;;;2.20;99.90;;;;;;5082607;28;20231;-59
2024/01/07 04:53:32;;;;;;;23.87;15.70;;;2.20;99.90;;;;;;5089790;28;20215;-59
2024/01/07 04:56:00;;;;;;;23.40;15.23;;;2.20;99.90;;;;;;5086465;28;20188;-60
2024/01/07 04:58:30;;;;;;;25.33;16.47;;;2.10;99.90;;;;;;5086272;28;20223;-60
2024/01/07 05:00:58;;;;;;;25.00;16.40;;;2.10;99.90;;;;;;5087571;28;20673;-60
2024/01/07 05:03:26;;;;;;;25.07;16.23;;;2.10;99.90;;;;;;5085401;27;20336;-60
2024/01/07 05:05:55;;;;;;;26.03;16.97;;;2.20;99.90;;;;;;5084586;28;20223;-59
2024/01/07 05:08:23;;;;;;;23.70;15.13;;;2.20;99.90;;;;;;5085908;28;20241;-60
2024/01/07 05:10:54;;;;;;;26.63;16.87;;;2.10;99.90;;;;;;5088567;28;20230;-59
2024/01/07 05:13:23;;;;;;;32.50;19.40;;;2.20;99.90;;;;;;5086429;28;20882;-60
2024/01/07 05:15:53;;;;;;;34.27;20.07;;;2.20;99.90;;;;;;5087382;28;20211;-59
2024/01/07 05:18:22;;;;;;;39.37;22.50;;;2.20;99.90;;;;;;5087701;28;20221;-60
2024/01/07 05:20:51;;;;;;;42.27;22.07;;;2.20;99.90;;;;;;5083384;28;20207;-60
2024/01/07 05:23:20;;;;;;;37.67;21.63;;;2.20;99.90;;;;;;5084594;28;20192;-59
2024/01/07 05:25:48;;;;;;;36.83;22.17;;;2.20;99.90;;;;;;5086705;28;20626;-60
2024/01/07 05:28:19;;;;;;;38.17;21.67;;;2.10;99.90;;;;;;5085200;28;20239;-60
2024/01/07 05:30:47;;;;;;;37.77;20.97;;;2.10;99.90;;;;;;5087969;28;20237;-60
2024/01/07 05:33:17;;;;;;;36.10;21.63;;;2.10;99.90;;;;;;5085901;28;20258;-60
2024/01/07 05:35:45;;;;;;;42.63;21.93;;;2.10;99.90;;;;;;5085383;28;20213;-60
2024/01/07 05:38:14;;;;;;;36.73;20.67;;;2.00;99.90;;;;;;5084302;28;20196;-60
2024/01/07 05:40:42;;;;;;;37.83;21.43;;;2.00;99.90;;;;;;5084801;28;20263;-59
2024/01/07 05:43:10;;;;;;;39.03;21.17;;;2.00;99.90;;;;;;5081536;28;20216;-60
2024/01/07 05:45:38;;;;;;;37.33;21.07;;;2.10;99.90;;;;;;5084152;28;20374;-60
2024/01/07 05:48:08;;;;;;;38.33;21.20;;;2.00;99.90;;;;;;5084489;28;20219;-59
2024/01/07 05:50:37;;;;;;;35.83;20.70;;;2.00;99.90;;;;;;5083955;28;20538;-60
2024/01/07 05:53:05;;;;;;;34.13;19.33;;;2.00;99.90;;;;;;5087228;28;20199;-60
2024/01/07 05:55:34;;;;;;;34.10;20.33;;;2.00;99.90;;;;;;5083338;28;20192;-59
2024/01/07 05:58:02;;;;;;;33.77;19.67;;;1.90;99.90;;;;;;5085472;28;20233;-60
2024/01/07 06:00:30;;;;;;;33.63;19.63;;;1.90;99.90;;;;;;5085136;28;20227;-60
2024/01/07 06:03:00;;;;;;;32.73;18.87;;;1.90;99.90;;;;;;5082342;28;20229;-60
2024/01/07 06:05:29;;;;;;;33.10;19.67;;;1.90;99.90;;;;;;5083855;28;20235;-59
2024/01/07 06:07:58;;;;;;;34.83;18.90;;;1.80;99.90;;;;;;5086207;28;20195;-60
2024/01/07 06:10:27;;;;;;;32.23;18.60;;;1.80;99.90;;;;;;5088159;27;20223;-60
2024/01/07 06:12:55;;;;;;;32.33;18.50;;;1.90;99.90;;;;;;5085574;28;20815;-60
2024/01/07 06:15:24;;;;;;;32.07;18.10;;;1.90;99.90;;;;;;5083249;28;20609;-60
2024/01/07 06:17:52;;;;;;;32.40;18.97;;;1.90;99.90;;;;;;5088567;28;20228;-60
2024/01/07 06:20:20;;;;;;;31.23;17.73;;;1.90;99.90;;;;;;5085523;28;20196;-60
2024/01/07 06:22:48;;;;;;;30.00;17.83;;;1.90;99.90;;;;;;5084556;28;20195;-60
2024/01/07 06:25:18;;;;;;;31.43;18.17;;;1.90;99.90;;;;;;5085705;28;20655;-60
2024/01/07 06:27:46;;;;;;;29.77;17.77;;;1.90;99.90;;;;;;5089683;27;20310;-60
2024/01/07 06:30:16;;;;;;;32.40;18.57;;;1.90;99.90;;;;;;5085967;28;20706;-61
2024/01/07 06:32:45;;;;;;;32.37;19.13;;;1.90;99.90;;;;;;5079283;28;20254;-59
2024/01/07 06:35:13;;;;;;;32.23;18.67;;;1.90;99.90;;;;;;5085592;28;20199;-59
2024/01/07 06:37:41;;;;;;;33.70;18.63;;;2.00;99.90;;;;;;5081256;28;20196;-58
2024/01/07 06:40:12;;;;;;;33.97;19.30;;;1.90;99.90;;;;;;5081756;28;20321;-60
2024/01/07 06:42:43;;;;;;;31.50;18.97;;;1.90;99.90;;;;;;5083385;27;20701;-60
2024/01/07 06:45:12;;;;;;;33.20;19.03;;;1.90;99.90;;;;;;5081931;28;20229;-60
2024/01/07 06:47:40;;;;;;;34.13;18.90;;;2.00;99.90;;;;;;5085998;28;20231;-60
2024/01/07 06:50:10;;;;;;;33.83;19.97;;;2.00;99.90;;;;;;5084534;28;20340;-60
2024/01/07 06:52:38;;;;;;;34.33;19.40;;;1.90;99.90;;;;;;5086898;28;20209;-60
2024/01/07 06:55:07;;;;;;;35.30;20.13;;;1.90;99.90;;;;;;5084315;28;20222;-60
2024/01/07 06:57:36;;;;;;;35.17;19.83;;;1.90;99.90;;;;;;5083886;28;20344;-60
2024/01/07 07:00:07;;;;;;;36.70;20.17;;;1.90;99.90;;;;;;5086183;28;20218;-59
2024/01/07 07:02:36;;;;;;;37.47;19.63;;;1.90;99.90;;;;;;5083472;28;20231;-59
2024/01/07 07:05:04;;;;;;;39.07;22.03;;;1.90;99.90;;;;;;5080712;28;20681;-59
2024/01/07 07:07:33;;;;;;;37.33;21.03;;;1.90;99.90;;;;;;5083465;28;20192;-60
2024/01/07 07:10:01;;;;;;;36.53;20.70;;;1.90;99.90;;;;;;5082195;28;20230;-60
2024/01/07 07:12:29;;;;;;;35.77;20.27;;;1.90;99.90;;;;;;5080385;28;20227;-60
2024/01/07 07:14:58;;;;;;;38.00;19.93;;;1.80;99.90;;;;;;5079330;28;20220;-59
2024/01/07 07:17:27;;;;;;;39.43;21.37;;;1.90;99.90;;;;;;5085058;28;20236;-59
2024/01/07 07:19:55;;;;;;;40.87;21.03;;;1.90;99.90;;;;;;5084448;28;20193;-59
2024/01/07 07:22:24;;;;;;;40.37;20.77;;;1.90;99.90;;;;;;5084167;28;20219;-59
2024/01/07 07:24:52;;;;;;;40.97;21.43;;;1.90;99.90;;;;;;5086972;28;20223;-59
2024/01/07 07:27:22;;;;;;;37.57;20.97;;;1.90;99.90;;;;;;5087308;28;20594;-59
2024/01/07 07:29:51;;;;;;;43.20;22.03;;;2.00;99.90;;;;;;5084706;28;20249;-60
2024/01/07 07:32:19;;;;;;;38.40;20.80;;;2.00;99.90;;;;;;5082187;28;20215;-59
2024/01/07 07:34:49;;;;;;;43.00;20.90;;;2.10;99.90;;;;;;5077118;28;20192;-59
2024/01/07 07:37:17;;;;;;;39.47;20.67;;;2.10;99.90;;;;;;5079798;28;20220;-62
2024/01/07 07:39:49;;;;;;;43.23;22.03;;;2.00;99.90;;;;;;5082390;28;20222;-59
2024/01/07 07:42:17;;;;;;;43.40;21.00;;;1.90;99.90;;;;;;5083109;28;20214;-60
2024/01/07 07:44:46;;;;;;;40.07;20.93;;;1.90;99.90;;;;;;5081449;28;20229;-59
2024/01/07 07:47:14;;;;;;;43.17;21.87;;;1.90;99.90;;;;;;5082875;28;20618;-59
2024/01/07 07:49:42;;;;;;;42.77;22.57;;;2.00;99.90;;;;;;5083948;28;20183;-59
2024/01/07 07:52:14;;;;;;;47.57;23.80;;;1.90;99.90;;;;;;5081972;28;20277;-58
2024/01/07 07:54:42;;;;;;;47.20;23.73;;;1.90;99.90;;;;;;5082427;28;20215;-59
2024/01/07 07:57:10;;;;;;;47.80;22.77;;;1.90;99.90;;;;;;5082589;28;20314;-59
2024/01/07 07:59:38;;;;;;;48.10;23.07;;;2.00;99.90;;;;;;5084230;28;20223;-59
2024/01/07 08:02:07;;;;;;;46.70;23.97;;;2.00;99.90;;;;;;5086473;28;20191;-59
2024/01/07 08:04:36;;;;;;;45.50;24.03;;;2.10;99.90;;;;;;5080993;28;20801;-59
2024/01/07 08:07:05;;;;;;;43.93;23.97;;;2.10;99.90;;;;;;5084130;28;20233;-59
2024/01/07 08:09:36;;;;;;;45.67;24.37;;;2.10;99.90;;;;;;5083450;27;20310;-59
2024/01/07 08:12:06;;;;;;;50.03;23.97;;;2.10;99.90;;;;;;5087435;28;20271;-59
2024/01/07 08:14:35;;;;;;;49.47;25.17;;;2.10;99.90;;;;;;5082503;28;20253;-59
2024/01/07 08:17:04;;;;;;;46.33;25.03;;;2.10;99.90;;;;;;5086907;28;20294;-58
2024/01/07 08:19:33;;;;;;;50.27;25.30;;;2.00;99.90;;;;;;5086802;28;20195;-59
2024/01/07 08:22:01;;;;;;;52.70;24.80;;;2.00;99.90;;;;;;5085785;28;20227;-60
2024/01/07 08:24:29;;;;;;;53.57;24.57;;;2.00;99.90;;;;;;5090587;27;20867;-59
2024/01/07 08:26:59;;;;;;;51.13;24.47;;;2.00;99.90;;;;;;5088588;28;20219;-59
2024/01/07 08:29:27;;;;;;;57.00;25.20;;;2.00;99.90;;;;;;5089996;28;20223;-59
2024/01/07 08:31:56;;;;;;;56.47;25.43;;;2.00;99.90;;;;;;5088450;28;20191;-60
2024/01/07 08:34:24;;;;;;;57.27;25.10;;;1.90;99.90;;;;;;5085996;27;20223;-59
2024/01/07 08:36:53;;;;;;;59.03;27.53;;;1.90;99.90;;;;;;5089792;28;20250;-59
2024/01/07 08:39:22;;;;;;;56.33;26.63;;;1.80;99.90;;;;;;5086705;28;20226;-59
2024/01/07 08:41:52;;;;;;;57.47;26.27;;;1.90;99.90;;;;;;5086291;28;20227;-60
2024/01/07 08:44:21;;;;;;;58.73;28.13;;;1.90;99.90;;;;;;5087972;28;20191;-59
2024/01/07 08:46:50;;;;;;;60.87;28.03;;;1.90;99.90;;;;;;5086457;28;20260;-59
2024/01/07 08:49:18;;;;;;;65.40;28.43;;;2.00;99.90;;;;;;5086314;28;20589;-58
2024/01/07 08:51:46;;;;;;;62.53;29.60;;;2.00;99.90;;;;;;5086247;28;20273;-59
2024/01/07 08:54:15;;;;;;;65.20;29.57;;;2.00;99.90;;;;;;5085076;28;21117;-59
2024/01/07 08:56:43;;;;;;;71.00;31.50;;;2.00;99.90;;;;;;5085632;28;20219;-60
2024/01/07 08:59:12;;;;;;;60.73;28.63;;;2.00;99.90;;;;;;5086314;28;20249;-61
2024/01/07 09:01:41;;;;;;;69.00;31.37;;;2.10;99.90;;;;;;5083911;28;20195;-61
2024/01/07 09:04:10;;;;;;;75.57;32.93;;;2.00;99.90;;;;;;5085390;28;20243;-58
2024/01/07 09:06:39;;;;;;;63.17;29.30;;;2.00;99.90;;;;;;5086602;28;20230;-59
2024/01/07 09:09:08;;;;;;;66.47;29.57;;;2.00;99.90;;;;;;5081811;28;20639;-59
2024/01/07 09:11:36;;;;;;;64.67;29.47;;;2.00;99.90;;;;;;5082662;28;20243;-59
2024/01/07 09:14:05;;;;;;;67.03;29.83;;;2.00;99.90;;;;;;5086224;28;20211;-59
2024/01/07 09:16:33;;;;;;;69.00;29.60;;;2.00;99.90;;;;;;5084006;28;20217;-59
2024/01/07 09:19:03;;;;;;;51.50;25.00;;;2.00;99.90;;;;;;5083705;27;20303;-60
2024/01/07 09:21:31;;;;;;;51.30;25.37;;;2.00;99.90;;;;;;5084088;28;20312;-59
2024/01/07 09:24:00;;;;;;;50.30;25.13;;;2.00;99.90;;;;;;5079179;28;21074;-60
2024/01/07 09:26:29;;;;;;;61.87;28.23;;;2.00;99.90;;;;;;5085322;28;20551;-60
2024/01/07 09:28:58;;;;;;;57.40;26.77;;;2.00;99.90;;;;;;5083941;28;20274;-60
2024/01/07 09:31:26;;;;;;;68.60;31.47;;;2.00;99.90;;;;;;5080398;28;20226;-60
2024/01/07 09:33:54;;;;;;;53.87;25.60;;;2.00;99.90;;;;;;5085882;27;20306;-60
2024/01/07 09:36:24;;;;;;;53.27;24.93;;;2.00;99.90;;;;;;5082602;28;20269;-60
2024/01/07 09:38:58;;;;;;;46.77;23.67;;;2.00;99.90;;;;;;5088912;28;20214;-59
2024/01/07 09:41:26;;;;;;;52.80;24.10;;;2.00;99.90;;;;;;5081904;28;20309;-60
2024/01/07 09:43:57;;;;;;;47.97;23.67;;;2.00;99.90;;;;;;5084949;28;20196;-60
2024/01/07 09:46:25;;;;;;;54.50;24.83;;;2.00;99.90;;;;;;5081599;28;20228;-60
2024/01/07 09:48:54;;;;;;;49.70;24.47;;;2.00;99.90;;;;;;5084161;28;20218;-59
2024/01/07 09:51:25;;;;;;;47.33;23.60;;;2.00;99.90;;;;;;5080017;28;20219;-60
2024/01/07 09:53:58;;;;;;;46.80;23.27;;;2.10;99.90;;;;;;5088648;27;20219;-60
2024/01/07 09:56:30;;;;;;;45.70;23.03;;;2.10;99.90;;;;;;5082755;28;20231;-59
2024/01/07 09:58:58;;;;;;;49.07;23.17;;;2.00;99.90;;;;;;5084719;28;20861;-59
2024/01/07 10:01:26;;;;;;;43.37;22.07;;;2.10;99.90;;;;;;5076985;28;20245;-60
2024/01/07 10:03:56;;;;;;;41.87;21.27;;;2.00;99.90;;;;;;5080066;28;20677;-60
2024/01/07 10:06:26;;;;;;;37.63;20.60;;;2.00;99.90;;;;;;5084575;28;20719;-60
2024/01/07 10:08:55;;;;;;;44.10;22.97;;;2.00;99.90;;;;;;5086842;28;20219;-60
2024/01/07 10:11:23;;;;;;;39.93;21.17;;;2.00;99.90;;;;;;5082904;28;20642;-60
2024/01/07 10:13:52;;;;;;;42.57;22.47;;;2.00;99.90;;;;;;5085918;28;20207;-60
2024/01/07 10:16:20;;;;;;;41.63;21.93;;;2.00;99.90;;;;;;5083113;28;20237;-59
2024/01/07 10:18:49;;;;;;;41.63;22.37;;;2.00;99.90;;;;;;5082248;28;20830;-60
2024/01/07 10:21:17;;;;;;;44.07;21.43;;;2.00;99.90;;;;;;5081691;28;20211;-60
2024/01/07 10:23:47;;;;;;;45.37;23.40;;;2.00;99.90;;;;;;5079438;28;20235;-60
2024/01/07 10:26:15;;;;;;;42.27;21.77;;;1.90;99.90;;;;;;5084175;28;20195;-60
2024/01/07 10:28:55;;;;;;;48.13;24.00;;;1.90;99.90;;;;;;5084315;28;20191;-60
2024/01/07 10:31:23;;;;;;;47.77;23.50;;;1.90;99.90;;;;;;5081659;28;20397;-60
2024/01/07 10:33:53;;;;;;;49.77;22.70;;;1.90;99.90;;;;;;5084746;27;20241;-60
2024/01/07 10:36:22;;;;;;;48.33;23.73;;;1.90;99.90;;;;;;5084704;28;20228;-60
2024/01/07 10:38:52;;;;;;;43.00;23.03;;;1.90;99.90;;;;;;5082267;28;20231;-60
2024/01/07 10:41:21;;;;;;;40.93;23.37;;;1.90;99.90;;;;;;5082469;28;20199;-60
2024/01/07 10:43:50;;;;;;;50.17;26.07;;;1.80;99.90;;;;;;5083102;28;20199;-60
2024/01/07 10:46:18;;;;;;;50.00;26.27;;;1.90;99.90;;;;;;5083260;27;20313;-60
2024/01/07 10:48:54;;;;;;;47.73;25.60;;;1.90;99.90;;;;;;5080798;28;20207;-60
2024/01/07 10:51:23;;;;;;;50.40;25.73;;;1.90;99.90;;;;;;5080680;28;20221;-60
2024/01/07 10:53:54;;;;;;;51.27;25.57;;;1.90;99.90;;;;;;5080910;28;20219;-61
2024/01/07 10:56:25;;;;;;;47.03;23.50;;;2.00;99.90;;;;;;5080277;28;20203;-60
2024/01/07 10:58:56;;;;;;;41.30;22.37;;;2.00;99.90;;;;;;5078312;28;20207;-60
2024/01/07 11:01:25;;;;;;;36.60;21.07;;;2.00;99.90;;;;;;5079936;28;20318;-60
2024/01/07 11:04:02;;;;;;;36.40;20.10;;;1.90;99.90;;;;;;5083096;28;20604;-60
2024/01/07 11:06:43;;;;;;;35.10;20.33;;;1.90;99.90;;;;;;5081187;28;20223;-60
2024/01/07 11:09:19;;;;;;;39.23;21.53;;;1.90;99.90;;;;;;5077691;28;20234;-60
2024/01/07 11:11:48;;;;;;;38.43;21.60;;;1.90;99.90;;;;;;5078817;27;20221;-60
2024/01/07 11:14:36;;;;;;;40.40;20.80;;;1.90;99.90;;;;;;5083127;28;20227;-60
2024/01/07 11:17:04;;;;;;;35.23;20.00;;;1.90;99.90;;;;;;5080236;28;20273;-59
2024/01/07 11:19:33;;;;;;;39.77;20.80;;;1.90;99.90;;;;;;5080362;28;20200;-60
2024/01/07 11:22:27;;;;;;;32.03;19.57;;;2.00;99.90;;;;;;5082123;28;20726;-60
2024/01/07 11:24:59;;;;;;;34.17;19.87;;;1.90;99.90;;;;;;5079494;28;20227;-60
2024/01/07 11:27:30;;;;;;;35.13;19.90;;;1.90;99.90;;;;;;5082988;27;20908;-60
2024/01/07 11:30:06;;;;;;;33.40;19.67;;;1.80;99.90;;;;;;5080901;28;20443;-60
2024/01/07 11:32:35;;;;;;;34.80;20.33;;;1.90;99.90;;;;;;5082823;28;20219;-60
2024/01/07 11:35:04;;;;;;;31.00;17.87;;;1.90;99.90;;;;;;5082894;28;20208;-59
2024/01/07 11:37:33;;;;;;;31.17;18.57;;;1.90;99.90;;;;;;5082933;28;20202;-60
2024/01/07 11:40:08;;;;;;;32.57;19.50;;;1.90;99.90;;;;;;5085057;28;21057;-60
2024/01/07 11:42:37;;;;;;;30.27;19.03;;;1.90;99.90;;;;;;5083907;28;20222;-60
2024/01/07 11:45:07;;;;;;;33.00;18.93;;;1.90;99.90;;;;;;5080993;28;20229;-60
2024/01/07 11:47:35;;;;;;;31.93;19.13;;;1.90;99.90;;;;;;5085103;28;20223;-60
2024/01/07 11:50:05;;;;;;;32.33;19.33;;;1.90;99.90;;;;;;5079257;28;20201;-60
2024/01/07 11:52:36;;;;;;;31.37;19.00;;;1.90;99.90;;;;;;5079965;28;20191;-60
2024/01/07 11:55:08;;;;;;;31.40;18.23;;;1.90;99.90;;;;;;5080097;28;20217;-60
2024/01/07 11:57:36;;;;;;;32.00;18.20;;;1.90;99.90;;;;;;5082300;28;20223;-60
2024/01/07 12:00:06;;;;;;;31.37;18.70;;;1.90;99.90;;;;;;5070480;28;20219;-60
2024/01/07 12:02:36;;;;;;;33.20;19.20;;;1.90;99.90;;;;;;5083265;28;20215;-60
2024/01/07 12:05:05;;;;;;;30.90;18.87;;;1.90;99.90;;;;;;5081470;28;20223;-60
2024/01/07 12:07:37;;;;;;;29.80;18.67;;;1.80;99.90;;;;;;5080378;28;20199;-60
2024/01/07 12:10:13;;;;;;;30.03;18.60;;;1.80;99.90;;;;;;5084541;28;20231;-59
2024/01/07 12:12:43;;;;;;;31.70;18.73;;;1.80;99.90;;;;;;5075353;28;20241;-59
2024/01/07 12:15:13;;;;;;;33.40;19.67;;;1.80;99.90;;;;;;5075398;28;20254;-59
2024/01/07 12:17:42;;;;;;;35.27;20.33;;;1.80;99.90;;;;;;5079694;28;20766;-60
2024/01/07 12:20:12;;;;;;;35.20;20.07;;;1.80;99.90;;;;;;5083523;28;20824;-59
2024/01/07 12:22:40;;;;;;;33.67;19.67;;;1.90;99.90;;;;;;5084756;28;20202;-59
2024/01/07 12:25:10;;;;;;;33.90;19.87;;;1.90;99.90;;;;;;5085546;28;20631;-60
2024/01/07 12:27:41;;;;;;;38.17;21.00;;;1.90;99.90;;;;;;5084127;28;20214;-60
2024/01/07 12:30:11;;;;;;;35.27;19.70;;;1.90;99.90;;;;;;5085114;27;20215;-60
2024/01/07 12:32:39;;;;;;;34.60;20.07;;;1.80;99.90;;;;;;5086291;27;20223;-59
2024/01/07 12:35:09;;;;;;;34.50;18.93;;;1.80;99.90;;;;;;5084342;28;20222;-58
2024/01/07 12:37:38;;;;;;;33.47;19.97;;;1.80;99.90;;;;;;5086863;28;20650;-59
2024/01/07 12:40:10;;;;;;;31.27;18.53;;;1.80;99.90;;;;;;5085799;28;20377;-58
2024/01/07 12:42:44;;;;;;;34.33;19.10;;;1.90;99.90;;;;;;5087541;28;20223;-59
2024/01/07 12:45:14;;;;;;;30.20;17.63;;;1.90;99.90;;;;;;5087371;28;20612;-59
2024/01/07 12:47:43;;;;;;;33.37;17.80;;;1.90;99.90;;;;;;5086285;28;20215;-59